Time;durP1;ratioP1;P1;durP2;ratioP2;P2;SDS_P1;SDS_P2;PMS_P1;PMS_P2;Temp;Humidity;BMP_temperature;BMP_pressure;BME280_temperature;BME280_humidity;BME280_pressure;Samples;Min_cycle;Max_cycle;Signal;HPM_P1;HPM_P2
2022/09/13 00:01:58;;;;;;;;;;;;;;;-144.99;73.78;52272.81;5125822;27;20343;-72
2022/09/13 00:04:25;;;;;;;;;;;;;;;-144.99;74.05;52293.19;5127843;27;19996;-72
2022/09/13 00:06:51;;;;;;;;;;;;;;;-144.99;74.07;52276.88;5127925;27;20419;-72
2022/09/13 00:09:19;;;;;;;;;;;;;;;-144.99;74.18;52295.22;5128130;27;20427;-71
2022/09/13 00:11:45;;;;;;;;;;;;;;;-144.99;73.89;52309.50;5126797;27;19970;-71
2022/09/13 00:14:12;;;;;;;;;;;;;;;-144.99;74.07;52280.97;5124623;27;19971;-70
2022/09/13 00:16:38;;;;;;;;;;;;;;;-144.99;76.19;52305.41;5115679;27;19923;-72
2022/09/13 00:19:05;;;;;;;;;;;;;;;-144.99;78.07;52297.25;5128365;27;20129;-72
2022/09/13 00:21:31;;;;;;;;;;;;;;;-144.99;80.85;52291.16;5127871;27;20002;-71
2022/09/13 00:23:58;;;;;;;;;;;;;;;-144.99;82.62;52301.34;5128344;27;19924;-72
2022/09/13 00:26:26;;;;;;;;;;;;;;;-144.99;84.67;52280.97;5128110;27;20011;-70
2022/09/13 00:28:54;;;;;;;;;;;;;;;-144.99;86.41;52260.56;5128120;27;19933;-71
2022/09/13 00:31:22;;;;;;;;;;;;;;;-144.99;88.42;52325.81;5126937;27;20014;-71
2022/09/13 00:33:49;;;;;;;;;;;;;;;-144.99;90.68;52309.50;5127391;27;20390;-72
2022/09/13 00:36:16;;;;;;;;;;;;;;;-144.99;92.27;52336.00;5128270;27;20022;-70
2022/09/13 00:38:43;;;;;;;;;;;;;;;-144.99;94.16;52301.34;5128077;27;19924;-72
2022/09/13 00:41:11;;;;;;;;;;;;;;;-144.99;96.13;52315.59;5127257;27;20030;-71
2022/09/13 00:43:42;;;;;;;;;;;;;;;-144.99;96.82;52317.66;5127258;27;20018;-73
2022/09/13 00:46:09;;;;;;;;;;;;;;;-144.99;95.71;52280.97;5126590;27;20023;-73
2022/09/13 00:48:36;;;;;;;;;;;;;;;-144.99;96.21;52280.97;5127796;27;19931;-74
2022/09/13 00:51:04;;;;;;;;;;;;;;;-144.99;95.76;52305.41;5128444;27;19923;-73
2022/09/13 00:53:32;;;;;;;;;;;;;;;-144.99;96.85;52333.94;5126756;27;20018;-74
2022/09/13 00:56:00;;;;;;;;;;;;;;;-144.99;98.52;52280.97;5125613;27;20450;-75
2022/09/13 00:58:29;;;;;;;;;;;;;;;-144.99;98.46;52299.31;5121056;27;20039;-74
2022/09/13 01:00:58;;;;;;;;;;;;;;;-144.99;98.77;52309.50;5127376;27;20063;-73
2022/09/13 01:03:27;;;;;;;;;;;;;;;-144.99;99.74;52293.19;5126435;27;20357;-74
2022/09/13 01:05:56;;;;;;;;;;;;;;;-144.99;99.56;52315.59;5127679;27;20457;-73
2022/09/13 01:08:23;;;;;;;;;;;;;;;-144.99;100.00;52315.59;5127642;27;19931;-72
2022/09/13 01:10:51;;;;;;;;;;;;;;;-144.99;100.00;52285.03;5127968;27;19927;-73
2022/09/13 01:13:18;;;;;;;;;;;;;;;-144.99;100.00;52285.03;5126597;27;19962;-73
2022/09/13 01:15:45;;;;;;;;;;;;;;;-144.99;100.00;52268.72;5117731;27;19931;-73
2022/09/13 01:18:13;;;;;;;;;;;;;;;-144.99;100.00;52317.66;5122062;27;19923;-73
2022/09/13 01:20:52;;;;;;;;;;;;;;;-144.99;100.00;52329.88;5127703;27;19924;-75
2022/09/13 01:23:36;;;;;;;;;;;;;;;-144.99;100.00;52321.72;5127325;27;19927;-74
2022/09/13 01:26:24;;;;;;;;;;;;;;;-144.99;100.00;52285.03;5123176;27;20018;-74
2022/09/13 01:29:04;;;;;;;;;;;;;;;-144.99;100.00;52264.66;5118867;27;20013;-73
2022/09/13 01:31:35;;;;;;;;;;;;;;;-144.99;100.00;52342.09;5120731;27;19928;-73
2022/09/13 01:34:09;;;;;;;;;;;;;;;-144.99;100.00;52321.72;5120846;28;19927;-73
2022/09/13 01:36:44;;;;;;;;;;;;;;;-144.99;100.00;52276.88;5127667;28;19927;-73
2022/09/13 01:39:15;;;;;;;;;;;;;;;-144.99;100.00;52325.81;5127682;28;19951;-73
2022/09/13 01:41:49;;;;;;;;;;;;;;;-144.99;100.00;52297.25;5126673;28;19927;-74
2022/09/13 01:44:20;;;;;;;;;;;;;;;-144.99;100.00;52297.25;5127519;28;19938;-71
2022/09/13 01:46:50;;;;;;;;;;;;;;;-144.99;100.00;52342.09;5125389;28;19984;-72
2022/09/13 01:49:19;;;;;;;;;;;;;;;-144.99;100.00;52313.56;5120440;28;19927;-72
2022/09/13 01:51:48;;;;;;;;;;;;;;;-144.99;100.00;52252.44;5127030;28;19966;-71
2022/09/13 01:54:17;;;;;;;;;;;;;;;-144.99;100.00;52301.34;5125956;28;20013;-71
2022/09/13 01:56:51;;;;;;;;;;;;;;;-144.99;100.00;52307.47;5126202;28;19930;-71
2022/09/13 01:59:21;;;;;;;;;;;;;;;-144.99;100.00;52309.50;5123247;28;20339;-71
2022/09/13 02:01:52;;;;;;;;;;;;;;;-144.99;100.00;52289.13;5124349;28;20333;-72
2022/09/13 02:04:22;;;;;;;;;;;;;;;-144.99;100.00;52338.03;5125596;28;20002;-71
2022/09/13 02:06:51;;;;;;;;;;;;;;;-144.99;100.00;52280.97;5126788;28;19943;-71
2022/09/13 02:09:20;;;;;;;;;;;;;;;-144.99;100.00;52280.97;5126828;28;20010;-72
2022/09/13 02:11:49;;;;;;;;;;;;;;;-144.99;100.00;52291.16;5125724;28;19931;-72
2022/09/13 02:14:17;;;;;;;;;;;;;;;-144.99;100.00;52305.41;5123706;27;20023;-72
2022/09/13 02:16:47;;;;;;;;;;;;;;;-144.99;100.00;52280.97;5126125;27;20026;-72
2022/09/13 02:19:17;;;;;;;;;;;;;;;-144.99;100.00;52321.72;5131350;27;19980;-71
2022/09/13 02:21:46;;;;;;;;;;;;;;;-144.99;100.00;52336.00;5130019;27;19952;-71
2022/09/13 02:24:16;;;;;;;;;;;;;;;-144.99;100.00;52309.50;5131293;27;20314;-71
2022/09/13 02:26:45;;;;;;;;;;;;;;;-144.99;100.00;52303.38;5129795;27;20014;-72
2022/09/13 02:29:13;;;;;;;;;;;;;;;-144.99;100.00;52309.50;5130335;27;19927;-70
2022/09/13 02:31:42;;;;;;;;;;;;;;;-144.99;100.00;52276.88;5128323;27;20022;-70
2022/09/13 02:34:12;;;;;;;;;;;;;;;-144.99;100.00;52315.59;5130876;27;19935;-70
2022/09/13 02:36:42;;;;;;;;;;;;;;;-144.99;100.00;52297.25;5130611;27;20342;-72
2022/09/13 02:39:13;;;;;;;;;;;;;;;-144.99;100.00;52309.50;5129414;27;19923;-73
2022/09/13 02:41:42;;;;;;;;;;;;;;;-144.99;100.00;52295.22;5129566;27;19992;-73
2022/09/13 02:44:12;;;;;;;;;;;;;;;-144.99;100.00;52309.50;5130103;27;20501;-73
2022/09/13 02:46:47;;;;;;;;;;;;;;;-144.99;100.00;52297.25;5128396;27;20364;-73
2022/09/13 02:49:17;;;;;;;;;;;;;;;-144.99;100.00;52289.13;5129825;27;19935;-72
2022/09/13 02:51:50;;;;;;;;;;;;;;;-144.99;100.00;52276.88;5130209;27;19927;-70
2022/09/13 02:54:23;;;;;;;;;;;;;;;-144.99;100.00;52289.13;5128157;27;19963;-71
2022/09/13 02:56:52;;;;;;;;;;;;;;;-144.99;100.00;52317.66;5129292;27;19955;-71
2022/09/13 02:59:20;;;;;;;;;;;;;;;-144.99;100.00;52342.09;5130413;27;20022;-70
2022/09/13 03:01:49;;;;;;;;;;;;;;;-144.99;100.00;52297.25;5127995;27;20054;-71
2022/09/13 03:04:15;;;;;;;;;;;;;;;-144.99;100.00;52264.66;5130563;27;19923;-71
2022/09/13 03:06:42;;;;;;;;;;;;;;;-144.99;100.00;52315.59;5129781;27;20006;-72
2022/09/13 03:09:10;;;;;;;;;;;;;;;-144.99;100.00;52309.50;5151607;22;20054;-75
2022/09/13 03:11:43;;;;;;;;;;;;;;;-144.99;100.00;52315.59;5102852;27;20032;-76
2022/09/13 03:14:17;;;;;;;;;;;;;;;-144.99;100.00;52293.19;5109228;28;19971;-77
2022/09/13 03:16:53;;;;;;;;;;;;;;;-144.99;100.00;52280.97;5109683;28;20375;-77
2022/09/13 03:19:27;;;;;;;;;;;;;;;-144.99;100.00;52285.03;5111395;28;19935;-78
2022/09/13 03:21:59;;;;;;;;;;;;;;;-144.99;100.00;52301.34;5106582;28;19963;-77
2022/09/13 03:24:31;;;;;;;;;;;;;;;-144.99;100.00;52333.94;5111443;28;20022;-74
2022/09/13 03:27:04;;;;;;;;;;;;;;;-144.99;100.00;52287.06;5104478;28;20350;-76
2022/09/13 03:29:33;;;;;;;;;;;;;;;-144.99;100.00;52280.97;5108916;28;19955;-76
2022/09/13 03:32:05;;;;;;;;;;;;;;;-144.99;100.00;52301.34;5104446;28;20010;-76
2022/09/13 03:34:34;;;;;;;;;;;;;;;-144.99;100.00;52285.03;5102846;28;20383;-74
2022/09/13 03:37:05;;;;;;;;;;;;;;;-144.99;100.00;52287.06;5108556;28;20371;-76
2022/09/13 03:39:36;;;;;;;;;;;;;;;-144.99;100.00;52289.13;5108885;28;20010;-75
2022/09/13 03:42:09;;;;;;;;;;;;;;;-144.99;100.00;52305.41;5107486;28;19989;-77
2022/09/13 03:44:38;;;;;;;;;;;;;;;-144.99;100.00;52297.25;5109042;28;19963;-77
2022/09/13 03:47:06;;;;;;;;;;;;;;;-144.99;100.00;52295.22;5106581;28;19938;-76
2022/09/13 03:49:33;;;;;;;;;;;;;;;-144.99;100.00;52280.97;5107929;28;19959;-76
2022/09/13 03:51:59;;;;;;;;;;;;;;;-144.99;100.00;52276.88;5107811;28;19924;-77
2022/09/13 03:54:28;;;;;;;;;;;;;;;-144.99;100.00;52319.69;5108167;28;20347;-76
2022/09/13 03:57:12;;;;;;;;;;;;;;;-144.99;100.00;52293.19;5108045;28;20453;-76
2022/09/13 03:59:41;;;;;;;;;;;;;;;-144.99;100.00;52297.25;5109892;28;19966;-75
2022/09/13 04:02:10;;;;;;;;;;;;;;;-144.99;100.00;52280.97;5110510;28;19967;-76
2022/09/13 04:04:37;;;;;;;;;;;;;;;-144.99;100.00;52329.88;5108761;28;19950;-75
2022/09/13 04:07:03;;;;;;;;;;;;;;;-144.99;100.00;52315.59;5108998;28;19975;-76
2022/09/13 04:09:30;;;;;;;;;;;;;;;-144.99;100.00;52293.19;5108152;28;20390;-77
2022/09/13 04:11:57;;;;;;;;;;;;;;;-144.99;100.00;52285.03;5106116;28;19924;-76
2022/09/13 04:14:27;;;;;;;;;;;;;;;-144.99;100.00;52301.34;5108323;28;19924;-76
2022/09/13 04:16:53;;;;;;;;;;;;;;;-144.99;100.00;52317.66;5105900;28;19931;-77
2022/09/13 04:19:20;;;;;;;;;;;;;;;-144.99;100.00;52289.13;5107969;28;19924;-77
2022/09/13 04:21:47;;;;;;;;;;;;;;;-144.99;100.00;52258.53;5106757;28;19930;-74
2022/09/13 04:24:14;;;;;;;;;;;;;;;-144.99;100.00;52329.88;5107515;28;20117;-76
2022/09/13 04:26:40;;;;;;;;;;;;;;;-144.99;100.00;52319.69;5103281;28;19924;-76
2022/09/13 04:29:06;;;;;;;;;;;;;;;-144.99;100.00;52297.25;5108051;28;19957;-74
2022/09/13 04:31:34;;;;;;;;;;;;;;;-144.99;100.00;52276.88;5103790;28;20030;-74
2022/09/13 04:34:01;;;;;;;;;;;;;;;-144.99;100.00;52297.25;5107876;28;19923;-74
2022/09/13 04:36:28;;;;;;;;;;;;;;;-144.99;100.00;52285.03;5107278;28;20472;-75
2022/09/13 04:38:54;;;;;;;;;;;;;;;-144.99;100.00;52295.22;5107395;28;19927;-71
2022/09/13 04:41:21;;;;;;;;;;;;;;;-144.99;100.00;52313.56;5107749;28;19974;-74
2022/09/13 04:43:49;;;;;;;;;;;;;;;-144.99;100.00;52309.50;5107669;28;20365;-73
2022/09/13 04:46:15;;;;;;;;;;;;;;;-144.99;100.00;52276.88;5106202;28;19937;-73
2022/09/13 04:48:43;;;;;;;;;;;;;;;-144.99;100.00;52297.25;5105891;28;20169;-73
2022/09/13 04:51:10;;;;;;;;;;;;;;;-144.99;100.00;52293.19;5108384;28;20026;-74
2022/09/13 04:53:36;;;;;;;;;;;;;;;-144.99;100.00;52321.72;5106742;28;19923;-74
2022/09/13 04:56:03;;;;;;;;;;;;;;;-144.99;100.00;52293.19;5107675;28;19931;-74
2022/09/13 04:58:30;;;;;;;;;;;;;;;-144.99;100.00;52270.78;5109565;28;20014;-73
2022/09/13 05:01:00;;;;;;;;;;;;;;;-144.99;100.00;52280.97;5107332;28;19924;-71
2022/09/13 05:03:29;;;;;;;;;;;;;;;-144.99;100.00;52295.22;5106811;28;19983;-74
2022/09/13 05:06:00;;;;;;;;;;;;;;;-144.99;100.00;52260.56;5108225;28;20386;-75
2022/09/13 05:08:27;;;;;;;;;;;;;;;-144.99;100.00;52305.41;5108535;28;20023;-72
2022/09/13 05:10:53;;;;;;;;;;;;;;;-144.99;100.00;52276.88;5106774;28;19923;-75
2022/09/13 05:13:20;;;;;;;;;;;;;;;-144.99;100.00;52254.47;5106930;28;20358;-76
2022/09/13 05:15:46;;;;;;;;;;;;;;;-144.99;100.00;52317.66;5106942;28;19927;-76
2022/09/13 05:18:13;;;;;;;;;;;;;;;-144.99;100.00;52276.88;5105310;28;19951;-76
2022/09/13 05:20:39;;;;;;;;;;;;;;;-144.99;100.00;52309.50;5107744;28;20019;-73
2022/09/13 05:23:07;;;;;;;;;;;;;;;-144.99;100.00;52276.88;4397623;28;10000732;-76
2022/09/13 05:25:33;;;;;;;;;;;;;;;-144.99;100.00;52266.69;5097554;28;20040;-75
2022/09/13 05:28:00;;;;;;;;;;;;;;;-144.99;100.00;52252.44;5103587;28;20319;-75
2022/09/13 05:30:26;;;;;;;;;;;;;;;-144.99;100.00;52272.81;5103870;28;20352;-75
2022/09/13 05:32:53;;;;;;;;;;;;;;;-144.99;100.00;52297.25;5095248;28;19928;-78
2022/09/13 05:35:19;;;;;;;;;;;;;;;-144.99;100.00;52329.88;5102561;28;19924;-74
2022/09/13 05:37:46;;;;;;;;;;;;;;;-144.99;100.00;52268.72;5111328;28;19963;-75
2022/09/13 05:40:14;;;;;;;;;;;;;;;-144.99;100.00;52266.69;5115303;28;20311;-75
2022/09/13 05:42:40;;;;;;;;;;;;;;;-144.99;100.00;52280.97;5118175;28;19952;-77
2022/09/13 05:45:08;;;;;;;;;;;;;;;-144.99;100.00;52301.34;5104131;28;19932;-76
2022/09/13 05:47:34;;;;;;;;;;;;;;;-144.99;100.00;52280.97;5101449;28;20030;-76
2022/09/13 05:50:00;;;;;;;;;;;;;;;-144.99;100.00;52246.31;5105396;28;19970;-75
2022/09/13 05:52:27;;;;;;;;;;;;;;;-144.99;100.00;52272.81;5106758;28;20607;-75
2022/09/13 05:54:53;;;;;;;;;;;;;;;-144.99;100.00;52301.34;5107982;28;20371;-75
2022/09/13 05:57:21;;;;;;;;;;;;;;;-144.99;100.00;52287.06;5106666;28;19963;-75
2022/09/13 05:59:47;;;;;;;;;;;;;;;-144.99;100.00;52301.34;5107531;28;19955;-76
2022/09/13 06:02:14;;;;;;;;;;;;;;;-144.99;100.00;52297.25;5103728;28;20125;-74
2022/09/13 06:04:40;;;;;;;;;;;;;;;-144.99;100.00;52223.88;5100148;28;19959;-74
2022/09/13 06:07:07;;;;;;;;;;;;;;;-144.99;100.00;52293.19;5108238;28;19932;-75
2022/09/13 06:09:33;;;;;;;;;;;;;;;-144.99;100.00;52305.41;5108060;28;20014;-75
2022/09/13 06:12:00;;;;;;;;;;;;;;;-144.99;100.00;52301.34;5100848;28;20174;-75
2022/09/13 06:14:27;;;;;;;;;;;;;;;-144.99;100.00;52309.50;5106669;28;20026;-78
2022/09/13 06:16:54;;;;;;;;;;;;;;;-144.99;100.00;52264.66;5103178;28;19935;-76
2022/09/13 06:19:21;;;;;;;;;;;;;;;-144.99;100.00;52293.19;5108248;28;19970;-75
2022/09/13 06:21:47;;;;;;;;;;;;;;;-144.99;100.00;52240.19;5106894;28;19928;-75
2022/09/13 06:24:13;;;;;;;;;;;;;;;-144.99;100.00;52252.44;5098456;28;19938;-72
2022/09/13 06:26:40;;;;;;;;;;;;;;;-144.99;100.00;52256.50;5097614;28;19927;-75
2022/09/13 06:29:06;;;;;;;;;;;;;;;-144.99;100.00;52283.00;5107158;28;20408;-73
2022/09/13 06:31:35;;;;;;;;;;;;;;;-144.99;100.00;52248.34;5103162;28;19942;-72
2022/09/13 06:34:02;;;;;;;;;;;;;;;-144.99;100.00;52244.28;5103363;28;20458;-75
2022/09/13 06:36:28;;;;;;;;;;;;;;;-144.99;100.00;52240.19;5105011;28;19935;-74
2022/09/13 06:38:55;;;;;;;;;;;;;;;-144.99;100.00;52240.19;5104830;28;19924;-74
2022/09/13 06:41:23;;;;;;;;;;;;;;;-144.99;100.00;52248.34;5102141;28;19932;-71
2022/09/13 06:43:52;;;;;;;;;;;;;;;-144.99;100.00;52240.19;5103627;28;19971;-73
2022/09/13 06:46:20;;;;;;;;;;;;;;;-144.99;100.00;52227.97;5095096;28;19928;-76
2022/09/13 06:48:48;;;;;;;;;;;;;;;-144.99;100.00;52244.28;5105466;28;20241;-73
2022/09/13 06:51:16;;;;;;;;;;;;;;;-144.99;100.00;52211.66;5099451;28;20279;-73
2022/09/13 06:53:42;;;;;;;;;;;;;;;-144.99;100.00;52223.88;5093118;28;19928;-75
2022/09/13 06:56:10;;;;;;;;;;;;;;;-144.99;100.00;52240.19;5100483;28;19938;-73
2022/09/13 06:58:37;;;;;;;;;;;;;;;-144.99;100.00;52264.66;5098382;28;20015;-75
2022/09/13 07:01:09;;;;;;;;;;;;;;;-144.99;100.00;52260.56;5104481;28;19938;-74
2022/09/13 07:03:35;;;;;;;;;;;;;;;-144.99;100.00;52227.97;5105008;28;20030;-74
2022/09/13 07:06:07;;;;;;;;;;;;;;;-144.99;100.00;52236.13;5105883;28;20054;-75
2022/09/13 07:08:34;;;;;;;;;;;;;;;-144.99;100.00;52260.56;5103741;28;20010;-74
2022/09/13 07:11:00;;;;;;;;;;;;;;;-144.99;100.00;52219.81;5104640;28;19934;-75
2022/09/13 07:13:27;;;;;;;;;;;;;;;-144.99;100.00;52260.56;5103404;28;20297;-74
2022/09/13 07:15:53;;;;;;;;;;;;;;;-144.99;100.00;52223.88;5099789;28;20011;-72
2022/09/13 07:18:20;;;;;;;;;;;;;;;-144.99;100.00;52244.28;5101666;28;20020;-76
2022/09/13 07:20:46;;;;;;;;;;;;;;;-144.99;100.00;52260.56;5106099;28;19927;-75
2022/09/13 07:23:14;;;;;;;;;;;;;;;-144.99;100.00;52227.97;5101161;28;19928;-72
2022/09/13 07:25:40;;;;;;;;;;;;;;;-144.99;100.00;52236.13;5092434;28;20035;-73
2022/09/13 07:28:07;;;;;;;;;;;;;;;-144.99;100.00;52223.88;5105266;28;19963;-74
2022/09/13 07:30:33;;;;;;;;;;;;;;;-144.99;100.00;52297.25;5106408;28;20020;-73
2022/09/13 07:33:00;;;;;;;;;;;;;;;-144.99;100.00;52285.03;5096168;28;20015;-75
2022/09/13 07:35:26;;;;;;;;;;;;;;;-144.99;100.00;52244.28;5104982;28;19978;-72
2022/09/13 07:37:53;;;;;;;;;;;;;;;-144.99;100.00;52232.03;5105255;28;20016;-74
2022/09/13 07:40:21;;;;;;;;;;;;;;;-144.99;100.00;52234.09;5104416;28;19971;-74
2022/09/13 07:42:47;;;;;;;;;;;;;;;-144.99;100.00;52227.97;5103859;28;20367;-74
2022/09/13 07:45:14;;;;;;;;;;;;;;;-144.99;100.00;52232.03;5102519;28;20375;-75
2022/09/13 07:47:41;;;;;;;;;;;;;;;-144.99;100.00;52244.28;5097808;28;19969;-73
2022/09/13 07:50:08;;;;;;;;;;;;;;;-144.99;100.00;52203.50;5102955;28;20454;-74
2022/09/13 07:52:36;;;;;;;;;;;;;;;-144.99;100.00;52197.41;5091738;28;19928;-75
2022/09/13 07:55:03;;;;;;;;;;;;;;;-144.99;96.24;52232.03;5098742;28;19932;-75
2022/09/13 07:57:31;;;;;;;;;;;;;;;-144.99;91.41;52191.28;5097105;28;20030;-77
2022/09/13 07:59:57;;;;;;;;;;;;;;;-144.99;87.59;52191.28;5095458;28;20041;-76
2022/09/13 08:02:24;;;;;;;;;;;;;;;-144.99;84.04;52199.44;5099128;28;19939;-76
2022/09/13 08:04:50;;;;;;;;;;;;;;;-144.99;81.77;52195.34;5092971;28;20032;-75
2022/09/13 08:07:17;;;;;;;;;;;;;;;-144.99;80.95;52162.75;5096253;28;19928;-76
2022/09/13 08:09:44;;;;;;;;;;;;;;;-144.99;76.69;52199.44;5099417;28;19924;-74
2022/09/13 08:12:10;;;;;;;;;;;;;;;-144.99;72.94;52211.66;5093416;28;19995;-76
2022/09/13 08:14:38;;;;;;;;;;;;;;;-144.99;71.62;52162.75;5100543;28;20138;-74
2022/09/13 08:17:05;;;;;;;;;;;;;;;-144.99;70.10;52181.09;5097911;28;20528;-76
2022/09/13 08:19:31;;;;;;;;;;;;;;;-144.99;68.30;52197.41;5098468;28;19935;-77
2022/09/13 08:21:59;;;;;;;;;;;;;;;-144.99;65.25;52174.97;5092305;28;19949;-74
2022/09/13 08:24:27;;;;;;;;;;;;;;;-144.99;63.33;52166.81;5091293;28;19981;-76
2022/09/13 08:26:55;;;;;;;;;;;;;;;-144.99;62.58;52166.81;5097656;28;19924;-74
2022/09/13 08:29:21;;;;;;;;;;;;;;;-144.99;59.41;52179.06;5094866;28;20438;-77
2022/09/13 08:31:49;;;;;;;;;;;;;;;-144.99;58.58;52195.34;5116734;28;19932;-74
2022/09/13 08:34:16;;;;;;;;;;;;;;;-144.99;53.96;52179.06;5111599;28;19969;-77
2022/09/13 08:36:43;;;;;;;;;;;;;;;-144.99;54.19;52183.13;5104052;28;20404;-75
2022/09/13 08:39:11;;;;;;;;;;;;;;;-144.99;53.78;52193.31;5106967;28;19952;-74
2022/09/13 08:41:58;;;;;;;;;;;;;;;-144.99;53.96;52156.63;5092523;28;20116;-72
2022/09/13 08:44:28;;;;;;;;;;;;;;;-144.99;53.39;52132.19;5107864;28;19989;-75
2022/09/13 08:46:59;;;;;;;;;;;;;;;-144.99;53.93;52172.94;5104636;28;20399;-74
2022/09/13 08:49:28;;;;;;;;;;;;;;;-144.99;52.70;52170.91;5105511;28;19938;-73
2022/09/13 08:51:56;;;;;;;;;;;;;;;-144.99;50.87;52138.28;5105715;28;19935;-74
2022/09/13 08:54:22;;;;;;;;;;;;;;;-144.99;50.52;52162.75;5103055;28;19931;-71
2022/09/13 08:56:52;;;;;;;;;;;;;;;-144.99;49.14;52215.75;5098574;28;19930;-74
2022/09/13 08:59:26;;;;;;;;;;;;;;;-144.99;49.25;52177.00;5107207;28;19928;-73
2022/09/13 09:01:58;;;;;;;;;;;;;;;-144.99;50.16;52162.75;5104719;28;19964;-75
2022/09/13 09:04:34;;;;;;;;;;;;;;;-144.99;49.06;52174.97;5096554;28;19927;-75
2022/09/13 09:07:04;;;;;;;;;;;;;;;-144.99;48.57;52146.44;5106816;28;20569;-74
2022/09/13 09:09:32;;;;;;;;;;;;;;;-144.99;47.99;52174.97;5103822;28;19971;-74
2022/09/13 09:12:03;;;;;;;;;;;;;;;-144.99;48.11;52199.44;5128282;22;19936;-80
2022/09/13 09:14:32;;;;;;;;;;;;;;;-144.99;47.24;52146.44;5104076;28;19995;-81
2022/09/13 09:17:01;;;;;;;;;;;;;;;-144.99;46.75;52154.59;5118771;28;19966;-80
2022/09/13 09:19:33;;;;;;;;;;;;;;;-144.99;46.32;52138.28;5114139;28;20384;-80
2022/09/13 09:22:02;;;;;;;;;;;;;;;-144.99;44.10;52113.84;5101506;28;19934;-82
2022/09/13 09:24:31;;;;;;;;;;;;;;;-144.99;43.94;52121.97;5101185;28;19974;-81
2022/09/13 09:26:58;;;;;;;;;;;;;;;-144.99;44.03;52156.63;5109033;28;19928;-81
2022/09/13 09:29:25;;;;;;;;;;;;;;;-144.99;44.44;52134.22;5108664;28;19932;-80
2022/09/13 09:32:02;;;;;;;;;;;;;;;-144.99;44.93;52158.66;5098895;28;20623;-81
2022/09/13 09:34:41;;;;;;;;;;;;;;;-144.99;44.57;52146.44;5104363;28;20463;-80
2022/09/13 09:37:14;;;;;;;;;;;;;;;-144.99;45.06;52158.66;5108175;28;19928;-80
2022/09/13 09:39:41;;;;;;;;;;;;;;;-144.99;45.29;52177.00;5106004;28;19963;-80
2022/09/13 09:42:12;;;;;;;;;;;;;;;-144.99;45.24;52172.94;5099133;28;19977;-75
2022/09/13 09:44:39;;;;;;;;;;;;;;;-144.99;45.01;52095.50;5100098;28;19928;-78
2022/09/13 09:47:11;;;;;;;;;;;;;;;-144.99;44.22;52126.06;5101496;28;19995;-79
2022/09/13 09:52:31;;;;;;;;;;;;;;;-144.99;43.36;52121.97;5110160;28;19939;-78
2022/09/13 09:55:02;;;;;;;;;;;;;;;-144.99;42.75;52054.72;5110519;28;20220;-80
2022/09/13 09:57:47;;;;;;;;;;;;;;;-144.99;41.02;52062.88;5108822;28;19932;-79
2022/09/13 10:00:15;;;;;;;;;;;;;;;-144.99;40.17;52073.06;5095790;28;19975;-80
2022/09/13 10:02:43;;;;;;;;;;;;;;;-144.99;39.75;52077.16;5102072;28;19928;-79
2022/09/13 10:05:11;;;;;;;;;;;;;;;-144.99;40.25;52079.19;5108288;28;20026;-78
2022/09/13 10:07:41;;;;;;;;;;;;;;;-144.99;39.43;52077.16;5109408;28;19928;-78
2022/09/13 10:10:19;;;;;;;;;;;;;;;-144.99;39.85;52085.31;5110999;28;19932;-79
2022/09/13 10:12:49;;;;;;;;;;;;;;;-144.99;38.94;52020.09;5104383;28;19928;-78
2022/09/13 10:15:17;;;;;;;;;;;;;;;-144.99;38.63;52091.41;5102198;28;19928;-79
2022/09/13 10:17:44;;;;;;;;;;;;;;;-144.99;37.44;51983.41;5095013;28;19928;-78
2022/09/13 10:20:21;;;;;;;;;;;;;;;-144.99;36.68;52018.03;5112999;28;19928;-78
2022/09/13 10:23:09;;;;;;;;;;;;;;;-144.99;37.70;52087.34;5121812;28;20026;-80
2022/09/13 10:25:37;;;;;;;;;;;;;;;-144.99;37.96;52064.91;5121955;28;19924;-80
2022/09/13 10:28:04;;;;;;;;;;;;;;;-144.99;37.67;52026.19;5111981;28;19938;-80
2022/09/13 10:30:34;;;;;;;;;;;;;;;-144.99;37.24;51983.41;5118706;28;19927;-79
2022/09/13 10:33:02;;;;;;;;;;;;;;;-144.99;37.23;51999.69;5121158;28;19932;-79
2022/09/13 10:35:29;;;;;;;;;;;;;;;-144.99;36.58;52007.84;5122227;28;19943;-80
2022/09/13 10:37:56;;;;;;;;;;;;;;;-144.99;36.30;51930.41;5126386;28;19945;-80
2022/09/13 10:40:26;;;;;;;;;;;;;;;-144.99;35.38;51936.53;5111839;28;20022;-77
2022/09/13 10:42:54;;;;;;;;;;;;;;;-144.99;34.77;51914.09;5111248;28;19935;-79
2022/09/13 10:45:23;;;;;;;;;;;;;;;-144.99;34.79;51967.09;5112661;28;19930;-79
2022/09/13 10:47:51;;;;;;;;;;;;;;;-144.99;34.63;51934.50;5107338;28;20432;-78
2022/09/13 10:50:19;;;;;;;;;;;;;;;-144.99;34.82;51934.50;5112833;28;19971;-79
2022/09/13 10:52:46;;;;;;;;;;;;;;;-144.99;35.89;52016.00;5112359;28;20016;-79
2022/09/13 10:55:24;;;;;;;;;;;;;;;-144.99;36.45;51987.47;5114629;28;20016;-78
2022/09/13 10:57:51;;;;;;;;;;;;;;;-144.99;36.17;51971.16;5113166;28;19994;-80
2022/09/13 11:00:19;;;;;;;;;;;;;;;-144.99;36.79;51973.22;5119000;28;19927;-80
2022/09/13 11:03:06;;;;;;;;;;;;;;;-144.99;35.57;51938.56;5109869;28;20345;-79
2022/09/13 11:05:36;;;;;;;;;;;;;;;-144.99;35.26;51954.88;5106250;28;19974;-77
2022/09/13 11:08:14;;;;;;;;;;;;;;;-144.99;35.51;51926.34;5109674;28;19949;-79
2022/09/13 11:10:48;;;;;;;;;;;;;;;-144.99;35.17;51930.41;5110843;28;20133;-79
2022/09/13 11:13:19;;;;;;;;;;;;;;;-144.99;34.41;51901.88;5108913;28;19973;-79
2022/09/13 11:15:53;;;;;;;;;;;;;;;-144.99;34.13;51938.56;5108220;28;19984;-79
2022/09/13 11:18:40;;;;;;;;;;;;;;;-144.99;34.49;51932.44;5117168;27;19927;-78
2022/09/13 11:21:14;;;;;;;;;;;;;;;-144.99;34.28;51897.81;5104273;28;19993;-78
2022/09/13 11:23:49;;;;;;;;;;;;;;;-144.99;33.51;51885.56;5114083;28;19938;-80
2022/09/13 11:26:27;;;;;;;;;;;;;;;-144.99;33.27;51848.91;5115863;28;19974;-79
2022/09/13 11:28:56;;;;;;;;;;;;;;;-144.99;33.30;51926.34;5111941;28;20094;-79
2022/09/13 11:31:32;;;;;;;;;;;;;;;-144.99;34.71;51930.41;5109504;27;19988;-78
2022/09/13 11:34:06;;;;;;;;;;;;;;;-144.99;35.11;51914.09;5112834;28;20014;-79
2022/09/13 11:36:44;;;;;;;;;;;;;;;-144.99;34.12;51885.56;5107449;28;19928;-81
2022/09/13 11:39:18;;;;;;;;;;;;;;;-144.99;33.54;51897.81;5117775;28;19970;-79
2022/09/13 11:41:52;;;;;;;;;;;;;;;-144.99;32.86;51840.75;5112950;28;19928;-80
2022/09/13 11:44:32;;;;;;;;;;;;;;;-144.99;33.19;51869.28;5113876;28;19927;-79
2022/09/13 11:47:04;;;;;;;;;;;;;;;-144.99;33.03;51910.03;5113780;28;19924;-79
2022/09/13 11:49:38;;;;;;;;;;;;;;;-144.99;32.90;51865.19;5115556;28;20343;-79
2022/09/13 11:52:09;;;;;;;;;;;;;;;-144.99;33.34;51999.69;5114909;28;19950;-80
2022/09/13 11:54:43;;;;;;;;;;;;;;;-144.99;33.92;51975.25;5119114;28;19987;-79
2022/09/13 11:57:13;;;;;;;;;;;;;;;-144.99;34.28;52048.63;4764158;28;9999950;-80
2022/09/13 11:59:43;;;;;;;;;;;;;;;-144.99;34.54;51997.66;5116991;28;20352;-80
2022/09/13 12:02:14;;;;;;;;;;;;;;;-144.99;33.86;51873.34;5117445;28;19928;-80
2022/09/13 12:04:45;;;;;;;;;;;;;;;-144.99;33.60;51877.44;5124268;28;19939;-80
2022/09/13 12:07:14;;;;;;;;;;;;;;;-144.99;33.03;51897.81;5122424;28;19959;-79
2022/09/13 12:09:53;;;;;;;;;;;;;;;-144.99;33.35;51901.88;5122215;28;19928;-78
2022/09/13 12:12:25;;;;;;;;;;;;;;;-144.99;34.02;51905.97;5107993;28;19928;-80
2022/09/13 12:14:57;;;;;;;;;;;;;;;-144.99;33.67;51840.75;5115582;28;19928;-80
2022/09/13 12:17:25;;;;;;;;;;;;;;;-144.99;33.04;51995.63;5112685;28;19951;-80
2022/09/13 12:19:54;;;;;;;;;;;;;;;-144.99;33.54;52007.84;5114552;28;19938;-79
2022/09/13 12:22:22;;;;;;;;;;;;;;;-144.99;33.11;51861.13;5114567;28;20025;-80
2022/09/13 12:24:51;;;;;;;;;;;;;;;-144.99;33.11;51958.94;5115523;27;19927;-79
2022/09/13 12:27:22;;;;;;;;;;;;;;;-144.99;33.35;51938.56;5112524;28;20498;-79
2022/09/13 12:29:51;;;;;;;;;;;;;;;-144.99;33.51;52032.31;5113766;28;19927;-80
2022/09/13 12:32:18;;;;;;;;;;;;;;;-144.99;34.35;51938.56;5110114;28;20114;-79
2022/09/13 12:34:47;;;;;;;;;;;;;;;-144.99;34.30;51916.16;5111539;28;19927;-80